Valemount, Canada
Current Conditions -  °F | °C
As of 8:00 PM on Saturday 20 Dec 2014 (Local Time) from CYWL Reporting Station
Light Snow Light Snow  
Wind Chill: 23°   Ceiling: 1000
Heat Index: 32°   Visibility: 2mi
Dew Point: 32°   Wind: 12mph
Humidity: 100%   Direction: 120°ESE
Pressure: 29.2"   Gusts: 18mph
Location:  52.83°N, 119.25°W
Report Text: CYWL 210400Z 12010G16KT 2SM -SN VV010 00/M00 A2920 RMK SN8 /S02/ SLP915
Loading
Personal Weather Stations






























Interactive Weather Map New forecast layout! Learn more

10-Day Weather Forecast

Advertisements
Track Severe Weather on mobile